EGHE/ISC METAR and TAF weather

Enter ICAO airport designator
Station Type Date Time Source
EGHE METAR 2019/05/25 15:20 UTC NOAA

EGHE 251520Z 28013KT 9999 SCT006 BKN025 16/14 Q1022


Station Type Date Time Source
EGHE Decoded METAR 2019/05/25 15:20 UTC NOAA

Scilly, Saint Mary'S, United Kingdom (EGHE) 49-55N 006-18W 0M
May 25, 2019 - 11:20 AM EDT / 2019.05.25 1520 UTC
Wind: from the W (280 degrees) at 15 MPH (13 KT):0
Visibility: greater than 7 mile(s):0
Sky conditions: mostly cloudy
Temperature: 60 F (16 C)
Dew Point: 57 F (14 C)
Relative Humidity: 87%
Pressure (altimeter): 30.18 in. Hg (1022 hPa)
ob: EGHE 251520Z 28013KT 9999 SCT006 BKN025 16/14 Q1022
cycle: 15

Station Type Date Time Source
EGHE TAF UTC NOAA

Error!

Example: see airport list